sensor_id;sensor_type;location;lat;lon;timestamp;P1;durP1;ratioP1;P2;durP2;ratioP2
42912;SDS011;50720;54.324;18.558;2024-01-25T00:00:28;13.73;;;1.83;;
42912;SDS011;50720;54.324;18.558;2024-01-25T00:03:18;12.73;;;0.85;;
42912;SDS011;50720;54.324;18.558;2024-01-25T00:05:48;3.60;;;1.10;;
42912;SDS011;50720;54.324;18.558;2024-01-25T00:08:20;4.80;;;1.05;;
42912;SDS011;50720;54.324;18.558;2024-01-25T00:10:50;2.67;;;0.75;;
42912;SDS011;50720;54.324;18.558;2024-01-25T00:13:20;7.53;;;1.95;;
42912;SDS011;50720;54.324;18.558;2024-01-25T00:15:51;3.73;;;0.63;;
42912;SDS011;50720;54.324;18.558;2024-01-25T00:20:51;5.18;;;0.77;;
42912;SDS011;50720;54.324;18.558;2024-01-25T00:23:22;2.35;;;0.50;;
42912;SDS011;50720;54.324;18.558;2024-01-25T00:25:52;3.58;;;0.70;;
42912;SDS011;50720;54.324;18.558;2024-01-25T00:28:25;6.97;;;1.52;;
42912;SDS011;50720;54.324;18.558;2024-01-25T00:30:56;10.48;;;2.15;;
42912;SDS011;50720;54.324;18.558;2024-01-25T00:33:26;3.92;;;0.98;;
42912;SDS011;50720;54.324;18.558;2024-01-25T00:35:56;8.35;;;1.30;;
42912;SDS011;50720;54.324;18.558;2024-01-25T00:38:28;6.63;;;0.70;;
42912;SDS011;50720;54.324;18.558;2024-01-25T00:40:59;4.28;;;0.88;;
42912;SDS011;50720;54.324;18.558;2024-01-25T00:43:29;6.30;;;2.00;;
42912;SDS011;50720;54.324;18.558;2024-01-25T00:46:00;3.47;;;0.55;;
42912;SDS011;50720;54.324;18.558;2024-01-25T00:48:30;2.38;;;0.90;;
42912;SDS011;50720;54.324;18.558;2024-01-25T00:51:01;7.38;;;0.95;;
42912;SDS011;50720;54.324;18.558;2024-01-25T00:53:37;6.70;;;0.63;;
42912;SDS011;50720;54.324;18.558;2024-01-25T00:56:08;4.78;;;0.98;;
42912;SDS011;50720;54.324;18.558;2024-01-25T00:58:40;4.03;;;0.63;;
42912;SDS011;50720;54.324;18.558;2024-01-25T01:01:11;5.78;;;0.98;;
42912;SDS011;50720;54.324;18.558;2024-01-25T01:03:42;3.17;;;0.63;;
42912;SDS011;50720;54.324;18.558;2024-01-25T01:06:13;5.47;;;1.00;;
42912;SDS011;50720;54.324;18.558;2024-01-25T01:08:45;8.10;;;1.23;;
42912;SDS011;50720;54.324;18.558;2024-01-25T01:11:15;3.22;;;0.85;;
42912;SDS011;50720;54.324;18.558;2024-01-25T01:13:45;4.40;;;0.82;;
42912;SDS011;50720;54.324;18.558;2024-01-25T01:16:15;9.00;;;0.77;;
42912;SDS011;50720;54.324;18.558;2024-01-25T01:18:47;11.43;;;1.40;;
42912;SDS011;50720;54.324;18.558;2024-01-25T01:21:18;11.25;;;1.55;;
42912;SDS011;50720;54.324;18.558;2024-01-25T01:23:50;13.25;;;1.75;;
42912;SDS011;50720;54.324;18.558;2024-01-25T01:26:20;6.05;;;1.38;;
42912;SDS011;50720;54.324;18.558;2024-01-25T01:28:50;25.98;;;2.83;;
42912;SDS011;50720;54.324;18.558;2024-01-25T01:31:20;11.07;;;2.20;;
42912;SDS011;50720;54.324;18.558;2024-01-25T01:33:50;11.15;;;2.42;;
42912;SDS011;50720;54.324;18.558;2024-01-25T01:36:21;18.92;;;3.55;;
42912;SDS011;50720;54.324;18.558;2024-01-25T01:38:52;21.50;;;2.92;;
42912;SDS011;50720;54.324;18.558;2024-01-25T01:41:23;18.63;;;3.38;;
42912;SDS011;50720;54.324;18.558;2024-01-25T01:43:52;24.38;;;4.70;;
42912;SDS011;50720;54.324;18.558;2024-01-25T01:46:28;11.35;;;2.30;;
42912;SDS011;50720;54.324;18.558;2024-01-25T01:49:01;19.02;;;2.60;;
42912;SDS011;50720;54.324;18.558;2024-01-25T01:51:33;15.43;;;2.55;;
42912;SDS011;50720;54.324;18.558;2024-01-25T01:54:05;25.33;;;3.03;;
42912;SDS011;50720;54.324;18.558;2024-01-25T01:56:36;13.48;;;5.88;;
42912;SDS011;50720;54.324;18.558;2024-01-25T01:59:08;10.77;;;1.92;;
42912;SDS011;50720;54.324;18.558;2024-01-25T02:01:39;12.52;;;3.17;;
42912;SDS011;50720;54.324;18.558;2024-01-25T02:04:09;24.35;;;6.28;;
42912;SDS011;50720;54.324;18.558;2024-01-25T02:06:40;25.55;;;5.75;;
42912;SDS011;50720;54.324;18.558;2024-01-25T02:09:14;22.23;;;3.78;;
42912;SDS011;50720;54.324;18.558;2024-01-25T02:11:45;28.98;;;3.35;;
42912;SDS011;50720;54.324;18.558;2024-01-25T02:14:14;9.68;;;2.08;;
42912;SDS011;50720;54.324;18.558;2024-01-25T02:16:45;18.20;;;3.35;;
42912;SDS011;50720;54.324;18.558;2024-01-25T02:19:15;13.45;;;2.53;;
42912;SDS011;50720;54.324;18.558;2024-01-25T02:21:46;11.77;;;2.35;;
42912;SDS011;50720;54.324;18.558;2024-01-25T02:24:18;6.65;;;1.65;;
42912;SDS011;50720;54.324;18.558;2024-01-25T02:26:48;9.35;;;1.95;;
42912;SDS011;50720;54.324;18.558;2024-01-25T02:29:19;13.27;;;2.97;;
42912;SDS011;50720;54.324;18.558;2024-01-25T02:31:49;22.27;;;4.78;;
42912;SDS011;50720;54.324;18.558;2024-01-25T02:34:19;11.57;;;1.85;;
42912;SDS011;50720;54.324;18.558;2024-01-25T02:36:49;6.28;;;1.63;;
42912;SDS011;50720;54.324;18.558;2024-01-25T02:39:20;10.88;;;2.10;;
42912;SDS011;50720;54.324;18.558;2024-01-25T02:41:51;12.23;;;2.80;;
42912;SDS011;50720;54.324;18.558;2024-01-25T02:44:20;12.18;;;2.80;;
42912;SDS011;50720;54.324;18.558;2024-01-25T02:46:50;5.00;;;1.17;;
42912;SDS011;50720;54.324;18.558;2024-01-25T02:49:20;6.93;;;1.92;;
42912;SDS011;50720;54.324;18.558;2024-01-25T02:51:52;11.35;;;1.92;;
42912;SDS011;50720;54.324;18.558;2024-01-25T02:54:23;11.77;;;1.92;;
42912;SDS011;50720;54.324;18.558;2024-01-25T02:56:54;9.80;;;1.95;;
42912;SDS011;50720;54.324;18.558;2024-01-25T02:59:23;9.35;;;2.95;;
42912;SDS011;50720;54.324;18.558;2024-01-25T03:01:54;7.80;;;2.47;;
42912;SDS011;50720;54.324;18.558;2024-01-25T03:04:24;10.05;;;1.88;;
42912;SDS011;50720;54.324;18.558;2024-01-25T03:06:54;9.60;;;1.83;;
42912;SDS011;50720;54.324;18.558;2024-01-25T03:09:26;8.70;;;1.70;;
42912;SDS011;50720;54.324;18.558;2024-01-25T03:11:56;4.40;;;1.02;;
42912;SDS011;50720;54.324;18.558;2024-01-25T03:14:26;4.75;;;0.98;;
42912;SDS011;50720;54.324;18.558;2024-01-25T03:16:56;6.05;;;1.13;;
42912;SDS011;50720;54.324;18.558;2024-01-25T03:19:26;9.40;;;1.98;;
42912;SDS011;50720;54.324;18.558;2024-01-25T03:24:30;11.90;;;2.20;;
42912;SDS011;50720;54.324;18.558;2024-01-25T03:27:01;6.88;;;1.83;;
42912;SDS011;50720;54.324;18.558;2024-01-25T03:29:30;7.78;;;1.35;;
42912;SDS011;50720;54.324;18.558;2024-01-25T03:32:01;9.57;;;1.73;;
42912;SDS011;50720;54.324;18.558;2024-01-25T03:34:30;6.57;;;1.83;;
42912;SDS011;50720;54.324;18.558;2024-01-25T03:37:01;6.90;;;2.03;;
42912;SDS011;50720;54.324;18.558;2024-01-25T03:39:32;4.93;;;1.60;;
42912;SDS011;50720;54.324;18.558;2024-01-25T03:42:03;10.68;;;1.92;;
42912;SDS011;50720;54.324;18.558;2024-01-25T03:44:32;11.10;;;1.43;;
42912;SDS011;50720;54.324;18.558;2024-01-25T03:47:03;5.32;;;1.70;;
42912;SDS011;50720;54.324;18.558;2024-01-25T03:49:33;7.45;;;2.03;;
42912;SDS011;50720;54.324;18.558;2024-01-25T03:52:03;6.28;;;1.23;;
42912;SDS011;50720;54.324;18.558;2024-01-25T03:57:06;6.25;;;1.25;;
42912;SDS011;50720;54.324;18.558;2024-01-25T03:59:36;13.25;;;1.85;;
42912;SDS011;50720;54.324;18.558;2024-01-25T04:02:06;10.07;;;1.67;;
42912;SDS011;50720;54.324;18.558;2024-01-25T04:04:37;18.02;;;2.67;;
42912;SDS011;50720;54.324;18.558;2024-01-25T04:07:07;11.00;;;2.92;;
42912;SDS011;50720;54.324;18.558;2024-01-25T04:09:38;7.25;;;1.45;;
42912;SDS011;50720;54.324;18.558;2024-01-25T04:12:09;7.63;;;1.05;;
42912;SDS011;50720;54.324;18.558;2024-01-25T04:14:39;9.40;;;1.63;;
42912;SDS011;50720;54.324;18.558;2024-01-25T04:17:09;4.50;;;1.17;;
42912;SDS011;50720;54.324;18.558;2024-01-25T04:19:38;7.88;;;1.60;;
42912;SDS011;50720;54.324;18.558;2024-01-25T04:22:09;9.40;;;1.33;;
42912;SDS011;50720;54.324;18.558;2024-01-25T04:24:40;7.63;;;2.10;;
42912;SDS011;50720;54.324;18.558;2024-01-25T04:27:11;11.18;;;1.63;;
42912;SDS011;50720;54.324;18.558;2024-01-25T04:29:41;10.40;;;2.00;;
42912;SDS011;50720;54.324;18.558;2024-01-25T04:32:12;11.10;;;1.60;;
42912;SDS011;50720;54.324;18.558;2024-01-25T04:34:43;10.68;;;1.98;;
42912;SDS011;50720;54.324;18.558;2024-01-25T04:37:15;9.77;;;1.67;;
42912;SDS011;50720;54.324;18.558;2024-01-25T04:39:47;8.52;;;0.82;;
42912;SDS011;50720;54.324;18.558;2024-01-25T04:42:17;2.53;;;1.27;;
42912;SDS011;50720;54.324;18.558;2024-01-25T04:44:47;9.50;;;2.53;;
42912;SDS011;50720;54.324;18.558;2024-01-25T04:47:18;7.75;;;1.55;;
42912;SDS011;50720;54.324;18.558;2024-01-25T04:49:47;10.35;;;3.33;;
42912;SDS011;50720;54.324;18.558;2024-01-25T04:52:18;12.20;;;1.60;;
42912;SDS011;50720;54.324;18.558;2024-01-25T04:54:49;12.38;;;1.52;;
42912;SDS011;50720;54.324;18.558;2024-01-25T04:57:19;5.93;;;0.93;;
42912;SDS011;50720;54.324;18.558;2024-01-25T04:59:49;5.20;;;1.20;;
42912;SDS011;50720;54.324;18.558;2024-01-25T05:02:19;11.88;;;2.70;;
42912;SDS011;50720;54.324;18.558;2024-01-25T05:04:49;6.25;;;1.30;;
42912;SDS011;50720;54.324;18.558;2024-01-25T05:07:20;5.47;;;1.30;;
42912;SDS011;50720;54.324;18.558;2024-01-25T05:09:58;4.32;;;1.38;;
42912;SDS011;50720;54.324;18.558;2024-01-25T05:12:28;8.32;;;1.70;;
42912;SDS011;50720;54.324;18.558;2024-01-25T05:14:58;6.95;;;1.92;;
42912;SDS011;50720;54.324;18.558;2024-01-25T05:17:29;4.88;;;0.98;;
42912;SDS011;50720;54.324;18.558;2024-01-25T05:19:58;4.18;;;1.38;;
42912;SDS011;50720;54.324;18.558;2024-01-25T05:22:31;10.27;;;1.63;;
42912;SDS011;50720;54.324;18.558;2024-01-25T05:25:09;6.78;;;2.38;;
42912;SDS011;50720;54.324;18.558;2024-01-25T05:27:39;6.82;;;1.58;;
42912;SDS011;50720;54.324;18.558;2024-01-25T05:30:09;8.43;;;1.42;;
42912;SDS011;50720;54.324;18.558;2024-01-25T05:32:40;6.10;;;2.05;;
42912;SDS011;50720;54.324;18.558;2024-01-25T05:35:10;15.37;;;1.47;;
42912;SDS011;50720;54.324;18.558;2024-01-25T05:37:42;4.57;;;1.20;;
42912;SDS011;50720;54.324;18.558;2024-01-25T05:40:14;5.33;;;1.00;;
42912;SDS011;50720;54.324;18.558;2024-01-25T05:42:45;6.03;;;0.88;;
42912;SDS011;50720;54.324;18.558;2024-01-25T05:45:15;5.35;;;1.48;;
42912;SDS011;50720;54.324;18.558;2024-01-25T05:47:48;6.53;;;1.20;;
42912;SDS011;50720;54.324;18.558;2024-01-25T05:50:18;4.40;;;0.80;;
42912;SDS011;50720;54.324;18.558;2024-01-25T05:52:48;2.50;;;1.00;;
42912;SDS011;50720;54.324;18.558;2024-01-25T05:55:20;5.45;;;1.45;;
42912;SDS011;50720;54.324;18.558;2024-01-25T05:57:50;4.28;;;1.33;;
42912;SDS011;50720;54.324;18.558;2024-01-25T06:00:20;4.82;;;0.80;;
42912;SDS011;50720;54.324;18.558;2024-01-25T06:02:50;5.80;;;1.10;;
42912;SDS011;50720;54.324;18.558;2024-01-25T06:05:20;6.35;;;1.13;;
42912;SDS011;50720;54.324;18.558;2024-01-25T06:07:51;8.07;;;1.27;;
42912;SDS011;50720;54.324;18.558;2024-01-25T06:10:23;5.20;;;1.58;;
42912;SDS011;50720;54.324;18.558;2024-01-25T06:12:53;8.48;;;1.52;;
42912;SDS011;50720;54.324;18.558;2024-01-25T06:15:23;8.27;;;1.30;;
42912;SDS011;50720;54.324;18.558;2024-01-25T06:17:53;5.57;;;1.87;;
42912;SDS011;50720;54.324;18.558;2024-01-25T06:20:23;6.38;;;1.40;;
42912;SDS011;50720;54.324;18.558;2024-01-25T06:22:53;9.90;;;1.67;;
42912;SDS011;50720;54.324;18.558;2024-01-25T06:25:25;9.57;;;2.15;;
42912;SDS011;50720;54.324;18.558;2024-01-25T06:27:59;7.00;;;1.45;;
42912;SDS011;50720;54.324;18.558;2024-01-25T06:30:29;7.43;;;1.45;;
42912;SDS011;50720;54.324;18.558;2024-01-25T06:32:59;3.92;;;1.33;;
42912;SDS011;50720;54.324;18.558;2024-01-25T06:35:29;8.05;;;1.63;;
42912;SDS011;50720;54.324;18.558;2024-01-25T06:38:00;10.10;;;1.80;;
42912;SDS011;50720;54.324;18.558;2024-01-25T06:40:31;8.57;;;1.75;;
42912;SDS011;50720;54.324;18.558;2024-01-25T06:43:01;7.32;;;1.40;;
42912;SDS011;50720;54.324;18.558;2024-01-25T06:45:31;6.85;;;1.50;;
42912;SDS011;50720;54.324;18.558;2024-01-25T06:48:02;6.35;;;1.88;;
42912;SDS011;50720;54.324;18.558;2024-01-25T06:50:32;8.87;;;1.67;;
42912;SDS011;50720;54.324;18.558;2024-01-25T06:53:03;8.23;;;1.80;;
42912;SDS011;50720;54.324;18.558;2024-01-25T06:55:34;9.20;;;2.17;;
42912;SDS011;50720;54.324;18.558;2024-01-25T06:58:05;5.70;;;1.77;;
42912;SDS011;50720;54.324;18.558;2024-01-25T07:00:35;8.98;;;1.65;;
42912;SDS011;50720;54.324;18.558;2024-01-25T07:03:07;7.80;;;2.63;;
42912;SDS011;50720;54.324;18.558;2024-01-25T07:05:38;7.60;;;1.83;;
42912;SDS011;50720;54.324;18.558;2024-01-25T07:08:08;8.50;;;2.13;;
42912;SDS011;50720;54.324;18.558;2024-01-25T07:10:42;4.70;;;1.38;;
42912;SDS011;50720;54.324;18.558;2024-01-25T07:13:13;7.07;;;2.05;;
42912;SDS011;50720;54.324;18.558;2024-01-25T07:15:43;2.70;;;1.55;;
42912;SDS011;50720;54.324;18.558;2024-01-25T07:18:13;9.27;;;3.22;;
42912;SDS011;50720;54.324;18.558;2024-01-25T07:20:44;6.13;;;1.98;;
42912;SDS011;50720;54.324;18.558;2024-01-25T07:23:14;4.80;;;2.78;;
42912;SDS011;50720;54.324;18.558;2024-01-25T07:25:45;3.47;;;1.88;;
42912;SDS011;50720;54.324;18.558;2024-01-25T07:28:18;14.48;;;2.55;;
42912;SDS011;50720;54.324;18.558;2024-01-25T07:30:48;9.50;;;1.92;;
42912;SDS011;50720;54.324;18.558;2024-01-25T07:33:18;4.30;;;1.02;;
42912;SDS011;50720;54.324;18.558;2024-01-25T07:35:48;3.28;;;0.75;;
42912;SDS011;50720;54.324;18.558;2024-01-25T07:38:19;3.33;;;0.88;;
42912;SDS011;50720;54.324;18.558;2024-01-25T07:40:50;4.95;;;0.82;;
42912;SDS011;50720;54.324;18.558;2024-01-25T07:43:20;2.15;;;0.40;;
42912;SDS011;50720;54.324;18.558;2024-01-25T07:45:51;1.03;;;0.50;;
42912;SDS011;50720;54.324;18.558;2024-01-25T07:48:21;1.52;;;0.82;;
42912;SDS011;50720;54.324;18.558;2024-01-25T07:50:51;2.35;;;0.80;;
42912;SDS011;50720;54.324;18.558;2024-01-25T07:53:21;2.80;;;0.95;;
42912;SDS011;50720;54.324;18.558;2024-01-25T07:55:53;2.47;;;0.73;;
42912;SDS011;50720;54.324;18.558;2024-01-25T07:58:23;0.60;;;0.50;;
42912;SDS011;50720;54.324;18.558;2024-01-25T08:00:53;1.23;;;0.52;;
42912;SDS011;50720;54.324;18.558;2024-01-25T08:03:23;2.28;;;0.55;;
42912;SDS011;50720;54.324;18.558;2024-01-25T08:05:53;7.15;;;0.90;;
42912;SDS011;50720;54.324;18.558;2024-01-25T08:08:24;1.02;;;0.40;;
42912;SDS011;50720;54.324;18.558;2024-01-25T08:10:55;0.68;;;0.50;;
42912;SDS011;50720;54.324;18.558;2024-01-25T08:13:26;0.40;;;0.40;;
42912;SDS011;50720;54.324;18.558;2024-01-25T08:16:00;0.93;;;0.68;;
42912;SDS011;50720;54.324;18.558;2024-01-25T08:18:31;1.88;;;0.43;;
42912;SDS011;50720;54.324;18.558;2024-01-25T08:21:01;1.80;;;1.00;;
42912;SDS011;50720;54.324;18.558;2024-01-25T08:23:31;1.25;;;0.60;;
42912;SDS011;50720;54.324;18.558;2024-01-25T08:26:02;2.95;;;1.13;;
42912;SDS011;50720;54.324;18.558;2024-01-25T08:28:33;0.93;;;0.63;;
42912;SDS011;50720;54.324;18.558;2024-01-25T08:31:03;2.53;;;0.90;;
42912;SDS011;50720;54.324;18.558;2024-01-25T08:33:33;0.77;;;0.50;;
42912;SDS011;50720;54.324;18.558;2024-01-25T08:36:03;2.90;;;0.67;;
42912;SDS011;50720;54.324;18.558;2024-01-25T08:38:34;1.92;;;0.98;;
42912;SDS011;50720;54.324;18.558;2024-01-25T08:41:06;3.97;;;1.17;;
42912;SDS011;50720;54.324;18.558;2024-01-25T08:43:36;8.00;;;3.15;;
42912;SDS011;50720;54.324;18.558;2024-01-25T08:46:07;2.60;;;1.50;;
42912;SDS011;50720;54.324;18.558;2024-01-25T08:48:38;2.13;;;1.25;;
42912;SDS011;50720;54.324;18.558;2024-01-25T08:51:09;5.18;;;1.10;;
42912;SDS011;50720;54.324;18.558;2024-01-25T08:53:39;3.70;;;0.97;;
42912;SDS011;50720;54.324;18.558;2024-01-25T08:56:10;2.10;;;0.82;;
42912;SDS011;50720;54.324;18.558;2024-01-25T08:58:41;4.50;;;0.95;;
42912;SDS011;50720;54.324;18.558;2024-01-25T09:01:11;4.90;;;1.00;;
42912;SDS011;50720;54.324;18.558;2024-01-25T09:03:41;3.13;;;1.30;;
42912;SDS011;50720;54.324;18.558;2024-01-25T09:06:11;3.10;;;1.00;;
42912;SDS011;50720;54.324;18.558;2024-01-25T09:08:43;3.03;;;0.57;;
42912;SDS011;50720;54.324;18.558;2024-01-25T09:11:14;1.60;;;0.73;;
42912;SDS011;50720;54.324;18.558;2024-01-25T09:13:45;3.28;;;0.65;;
42912;SDS011;50720;54.324;18.558;2024-01-25T09:16:17;3.22;;;1.08;;
42912;SDS011;50720;54.324;18.558;2024-01-25T09:18:47;4.25;;;0.90;;
42912;SDS011;50720;54.324;18.558;2024-01-25T09:21:18;1.83;;;0.85;;
42912;SDS011;50720;54.324;18.558;2024-01-25T09:23:48;3.03;;;0.90;;
42912;SDS011;50720;54.324;18.558;2024-01-25T09:26:19;2.40;;;1.38;;
42912;SDS011;50720;54.324;18.558;2024-01-25T09:28:49;6.32;;;2.03;;
42912;SDS011;50720;54.324;18.558;2024-01-25T09:31:19;3.50;;;1.40;;
42912;SDS011;50720;54.324;18.558;2024-01-25T09:33:50;5.70;;;1.50;;
42912;SDS011;50720;54.324;18.558;2024-01-25T09:36:20;2.67;;;1.25;;
42912;SDS011;50720;54.324;18.558;2024-01-25T09:38:51;3.72;;;1.13;;
42912;SDS011;50720;54.324;18.558;2024-01-25T09:41:22;1.55;;;1.42;;
42912;SDS011;50720;54.324;18.558;2024-01-25T09:43:52;1.27;;;1.02;;
42912;SDS011;50720;54.324;18.558;2024-01-25T09:46:22;3.28;;;1.80;;
42912;SDS011;50720;54.324;18.558;2024-01-25T09:48:53;5.60;;;1.48;;
42912;SDS011;50720;54.324;18.558;2024-01-25T09:51:23;2.97;;;1.20;;
42912;SDS011;50720;54.324;18.558;2024-01-25T09:53:55;13.18;;;1.10;;
42912;SDS011;50720;54.324;18.558;2024-01-25T09:56:27;1.88;;;1.02;;
42912;SDS011;50720;54.324;18.558;2024-01-25T09:59:01;1.95;;;1.00;;
42912;SDS011;50720;54.324;18.558;2024-01-25T10:01:32;2.15;;;0.80;;
42912;SDS011;50720;54.324;18.558;2024-01-25T10:04:04;2.65;;;0.90;;
42912;SDS011;50720;54.324;18.558;2024-01-25T10:06:36;3.53;;;1.40;;
42912;SDS011;50720;54.324;18.558;2024-01-25T10:09:06;1.35;;;0.60;;
42912;SDS011;50720;54.324;18.558;2024-01-25T10:11:39;3.00;;;0.75;;
42912;SDS011;50720;54.324;18.558;2024-01-25T10:14:17;1.98;;;1.33;;
42912;SDS011;50720;54.324;18.558;2024-01-25T10:16:47;4.23;;;1.30;;
42912;SDS011;50720;54.324;18.558;2024-01-25T10:19:18;1.33;;;0.93;;
42912;SDS011;50720;54.324;18.558;2024-01-25T10:21:50;5.25;;;0.90;;
42912;SDS011;50720;54.324;18.558;2024-01-25T10:24:20;1.05;;;0.52;;
42912;SDS011;50720;54.324;18.558;2024-01-25T10:26:53;0.68;;;0.50;;
42912;SDS011;50720;54.324;18.558;2024-01-25T10:29:25;1.95;;;0.60;;
42912;SDS011;50720;54.324;18.558;2024-01-25T10:31:55;1.75;;;1.02;;
42912;SDS011;50720;54.324;18.558;2024-01-25T10:34:26;3.88;;;0.80;;
42912;SDS011;50720;54.324;18.558;2024-01-25T10:36:58;1.52;;;0.80;;
42912;SDS011;50720;54.324;18.558;2024-01-25T10:39:28;1.55;;;0.60;;
42912;SDS011;50720;54.324;18.558;2024-01-25T10:42:00;2.15;;;0.65;;
42912;SDS011;50720;54.324;18.558;2024-01-25T10:44:31;1.65;;;0.82;;
42912;SDS011;50720;54.324;18.558;2024-01-25T10:47:01;1.08;;;0.45;;
42912;SDS011;50720;54.324;18.558;2024-01-25T10:49:32;2.90;;;0.57;;
42912;SDS011;50720;54.324;18.558;2024-01-25T10:52:03;3.40;;;0.70;;
42912;SDS011;50720;54.324;18.558;2024-01-25T10:54:35;1.02;;;0.65;;
42912;SDS011;50720;54.324;18.558;2024-01-25T10:57:06;1.30;;;0.75;;
42912;SDS011;50720;54.324;18.558;2024-01-25T10:59:37;1.30;;;0.70;;
42912;SDS011;50720;54.324;18.558;2024-01-25T11:02:07;0.85;;;0.65;;
42912;SDS011;50720;54.324;18.558;2024-01-25T11:04:38;1.88;;;0.65;;
42912;SDS011;50720;54.324;18.558;2024-01-25T11:07:08;1.50;;;0.68;;
42912;SDS011;50720;54.324;18.558;2024-01-25T11:09:40;1.67;;;0.80;;
42912;SDS011;50720;54.324;18.558;2024-01-25T11:15:07;2.25;;;1.10;;
42912;SDS011;50720;54.324;18.558;2024-01-25T11:20:40;1.60;;;0.90;;
42912;SDS011;50720;54.324;18.558;2024-01-25T11:23:11;1.30;;;0.70;;
42912;SDS011;50720;54.324;18.558;2024-01-25T11:25:45;2.75;;;0.88;;
42912;SDS011;50720;54.324;18.558;2024-01-25T11:28:16;2.95;;;1.65;;
42912;SDS011;50720;54.324;18.558;2024-01-25T11:30:48;4.10;;;1.40;;
42912;SDS011;50720;54.324;18.558;2024-01-25T11:33:19;5.65;;;1.50;;
42912;SDS011;50720;54.324;18.558;2024-01-25T11:35:54;2.65;;;1.40;;
42912;SDS011;50720;54.324;18.558;2024-01-25T11:38:24;1.92;;;1.30;;
42912;SDS011;50720;54.324;18.558;2024-01-25T11:40:56;1.67;;;1.02;;
42912;SDS011;50720;54.324;18.558;2024-01-25T11:43:27;8.13;;;2.08;;
42912;SDS011;50720;54.324;18.558;2024-01-25T11:45:58;1.38;;;0.60;;
42912;SDS011;50720;54.324;18.558;2024-01-25T11:48:29;4.65;;;1.60;;
42912;SDS011;50720;54.324;18.558;2024-01-25T11:50:59;1.95;;;0.98;;
42912;SDS011;50720;54.324;18.558;2024-01-25T11:53:29;1.58;;;0.75;;
42912;SDS011;50720;54.324;18.558;2024-01-25T11:55:59;1.25;;;0.70;;
42912;SDS011;50720;54.324;18.558;2024-01-25T11:58:30;3.40;;;0.85;;
42912;SDS011;50720;54.324;18.558;2024-01-25T12:01:04;3.35;;;1.80;;
42912;SDS011;50720;54.324;18.558;2024-01-25T12:03:37;3.90;;;1.67;;
42912;SDS011;50720;54.324;18.558;2024-01-25T12:06:07;3.35;;;1.13;;
42912;SDS011;50720;54.324;18.558;2024-01-25T12:11:07;3.00;;;1.08;;
42912;SDS011;50720;54.324;18.558;2024-01-25T12:13:40;2.22;;;0.88;;
42912;SDS011;50720;54.324;18.558;2024-01-25T12:16:12;1.70;;;1.17;;
42912;SDS011;50720;54.324;18.558;2024-01-25T12:18:44;2.97;;;1.35;;
42912;SDS011;50720;54.324;18.558;2024-01-25T12:21:14;4.00;;;1.50;;
42912;SDS011;50720;54.324;18.558;2024-01-25T12:23:44;2.97;;;1.10;;
42912;SDS011;50720;54.324;18.558;2024-01-25T12:26:14;3.13;;;1.17;;
42912;SDS011;50720;54.324;18.558;2024-01-25T12:28:45;3.88;;;2.08;;
42912;SDS011;50720;54.324;18.558;2024-01-25T12:31:19;2.75;;;1.50;;
42912;SDS011;50720;54.324;18.558;2024-01-25T12:33:49;3.90;;;1.42;;
42912;SDS011;50720;54.324;18.558;2024-01-25T12:36:19;3.00;;;1.93;;
42912;SDS011;50720;54.324;18.558;2024-01-25T12:38:49;5.38;;;2.00;;
42912;SDS011;50720;54.324;18.558;2024-01-25T12:41:19;2.90;;;0.98;;
42912;SDS011;50720;54.324;18.558;2024-01-25T12:43:50;3.28;;;1.73;;
42912;SDS011;50720;54.324;18.558;2024-01-25T12:46:22;4.15;;;0.98;;
42912;SDS011;50720;54.324;18.558;2024-01-25T12:48:55;2.20;;;1.08;;
42912;SDS011;50720;54.324;18.558;2024-01-25T12:51:26;2.08;;;1.23;;
42912;SDS011;50720;54.324;18.558;2024-01-25T12:53:56;1.50;;;0.77;;
42912;SDS011;50720;54.324;18.558;2024-01-25T12:56:26;2.63;;;0.95;;
42912;SDS011;50720;54.324;18.558;2024-01-25T12:58:56;1.40;;;0.63;;
42912;SDS011;50720;54.324;18.558;2024-01-25T13:01:28;1.85;;;1.15;;
42912;SDS011;50720;54.324;18.558;2024-01-25T13:03:58;4.55;;;1.50;;
42912;SDS011;50720;54.324;18.558;2024-01-25T13:06:28;4.47;;;2.25;;
42912;SDS011;50720;54.324;18.558;2024-01-25T13:08:58;4.28;;;1.58;;
42912;SDS011;50720;54.324;18.558;2024-01-25T13:11:28;1.73;;;1.15;;
42912;SDS011;50720;54.324;18.558;2024-01-25T13:13:59;3.13;;;1.30;;
42912;SDS011;50720;54.324;18.558;2024-01-25T13:16:30;3.85;;;1.95;;
42912;SDS011;50720;54.324;18.558;2024-01-25T13:19:01;4.55;;;1.42;;
42912;SDS011;50720;54.324;18.558;2024-01-25T13:21:31;2.53;;;0.93;;
42912;SDS011;50720;54.324;18.558;2024-01-25T13:24:01;1.75;;;1.10;;
42912;SDS011;50720;54.324;18.558;2024-01-25T13:26:31;2.20;;;1.25;;
42912;SDS011;50720;54.324;18.558;2024-01-25T13:29:02;2.17;;;1.17;;
42912;SDS011;50720;54.324;18.558;2024-01-25T13:31:33;0.50;;;0.50;;
42912;SDS011;50720;54.324;18.558;2024-01-25T13:34:03;2.80;;;1.13;;
42912;SDS011;50720;54.324;18.558;2024-01-25T13:36:33;3.77;;;1.13;;
42912;SDS011;50720;54.324;18.558;2024-01-25T13:39:04;3.38;;;1.27;;
42912;SDS011;50720;54.324;18.558;2024-01-25T13:41:34;2.10;;;0.90;;
42912;SDS011;50720;54.324;18.558;2024-01-25T13:44:04;1.67;;;0.67;;
42912;SDS011;50720;54.324;18.558;2024-01-25T13:46:35;1.05;;;0.73;;
42912;SDS011;50720;54.324;18.558;2024-01-25T13:49:06;1.15;;;0.52;;
42912;SDS011;50720;54.324;18.558;2024-01-25T13:51:36;1.15;;;0.85;;
42912;SDS011;50720;54.324;18.558;2024-01-25T13:54:06;4.40;;;0.82;;
42912;SDS011;50720;54.324;18.558;2024-01-25T13:56:36;2.28;;;1.23;;
42912;SDS011;50720;54.324;18.558;2024-01-25T13:59:07;3.55;;;1.40;;
42912;SDS011;50720;54.324;18.558;2024-01-25T14:01:38;3.45;;;1.15;;
42912;SDS011;50720;54.324;18.558;2024-01-25T14:04:09;4.22;;;1.25;;
42912;SDS011;50720;54.324;18.558;2024-01-25T14:06:39;3.00;;;1.55;;
42912;SDS011;50720;54.324;18.558;2024-01-25T14:09:10;3.97;;;1.10;;
42912;SDS011;50720;54.324;18.558;2024-01-25T14:11:40;2.47;;;0.90;;
42912;SDS011;50720;54.324;18.558;2024-01-25T14:14:11;4.45;;;1.08;;
42912;SDS011;50720;54.324;18.558;2024-01-25T14:16:42;6.82;;;1.70;;
42912;SDS011;50720;54.324;18.558;2024-01-25T14:19:13;3.70;;;1.45;;
42912;SDS011;50720;54.324;18.558;2024-01-25T14:21:44;2.35;;;1.38;;
42912;SDS011;50720;54.324;18.558;2024-01-25T14:24:26;2.40;;;1.58;;
42912;SDS011;50720;54.324;18.558;2024-01-25T14:26:56;2.83;;;1.27;;
42912;SDS011;50720;54.324;18.558;2024-01-25T14:29:26;3.45;;;1.33;;
42912;SDS011;50720;54.324;18.558;2024-01-25T14:32:01;2.53;;;1.33;;
42912;SDS011;50720;54.324;18.558;2024-01-25T14:34:32;3.63;;;1.95;;
42912;SDS011;50720;54.324;18.558;2024-01-25T14:37:02;4.15;;;1.70;;
42912;SDS011;50720;54.324;18.558;2024-01-25T14:39:32;2.33;;;1.38;;
42912;SDS011;50720;54.324;18.558;2024-01-25T14:42:09;6.32;;;1.98;;
42912;SDS011;50720;54.324;18.558;2024-01-25T14:44:42;4.50;;;2.40;;
42912;SDS011;50720;54.324;18.558;2024-01-25T14:47:14;6.60;;;2.38;;
42912;SDS011;50720;54.324;18.558;2024-01-25T14:49:48;5.55;;;2.53;;
42912;SDS011;50720;54.324;18.558;2024-01-25T14:52:19;6.70;;;2.70;;
42912;SDS011;50720;54.324;18.558;2024-01-25T14:54:49;3.22;;;2.67;;
42912;SDS011;50720;54.324;18.558;2024-01-25T14:57:19;5.10;;;2.60;;
42912;SDS011;50720;54.324;18.558;2024-01-25T14:59:49;5.43;;;2.83;;
42912;SDS011;50720;54.324;18.558;2024-01-25T15:02:21;7.50;;;3.83;;
42912;SDS011;50720;54.324;18.558;2024-01-25T15:04:51;7.05;;;3.42;;
42912;SDS011;50720;54.324;18.558;2024-01-25T15:07:21;13.23;;;3.20;;
42912;SDS011;50720;54.324;18.558;2024-01-25T15:09:51;9.10;;;3.88;;